Air Park, Nebraska
Current Conditions -  °F | °C
As of 5:54 PM on Monday 20 Oct 2014 (Local Time) from KLNK Reporting Station
Clear Clear  
Wind Chill: 22°   Ceiling: Unl
Heat Index: 22°   Visibility: 10mi
Dew Point:   Wind: 3mph
Humidity: 26%   Direction: 330°NNW
Pressure: 30.05"   Gusts: NA
Location:  40.8731°N, 96.8015°W
Report Text: KLNK 202254Z 33003KT 10SM CLR 22/02 A3005 RMK AO2 SLP175 T02220017
Loading
Personal Weather Stations






























Interactive Weather Map
Tropical Storm Tracking
New forecast layout! Learn more

10-Day Weather Forecast

Advertisements
Track Severe Weather on mobile